Time;durP1;ratioP1;P1;durP2;ratioP2;P2;SDS_P1;SDS_P2;PMS_P1;PMS_P2;Temp;Humidity;BMP_temperature;BMP_pressure;BME280_temperature;BME280_humidity;BME280_pressure;Samples;Min_cycle;Max_cycle;Signal;HPM_P1;HPM_P2
2022/10/10 00:01:59;;;;;;;13.27;6.40;;;;;;;8.52;100.00;101566.97;7375002;19;20011;-73
2022/10/10 00:04:28;;;;;;;11.15;5.90;;;;;;;8.54;100.00;101564.41;7367491;19;20010;-73
2022/10/10 00:06:58;;;;;;;14.32;7.10;;;;;;;8.56;100.00;101565.34;7372618;19;20022;-73
2022/10/10 00:09:28;;;;;;;13.95;6.88;;;;;;;8.58;100.00;101566.31;7372242;19;20006;-72
2022/10/10 00:12:00;;;;;;;11.95;6.03;;;;;;;8.60;100.00;101563.75;7372139;19;20011;-72
2022/10/10 00:14:30;;;;;;;11.55;6.53;;;;;;;8.61;100.00;101555.94;7370352;19;20030;-77
2022/10/10 00:17:01;;;;;;;11.82;6.40;;;;;;;8.60;100.00;101562.00;7374543;19;20018;-77
2022/10/10 00:19:30;;;;;;;12.15;6.32;;;;;;;8.66;100.00;101549.13;7371082;19;20019;-76
2022/10/10 00:22:00;;;;;;;13.98;6.28;;;;;;;8.63;100.00;101553.38;7370682;19;20038;-75
2022/10/10 00:24:32;;;;;;;13.38;7.10;;;;;;;8.68;100.00;101547.47;7373419;19;20028;-75
2022/10/10 00:27:05;;;;;;;14.85;7.07;;;;;;;8.77;100.00;101544.25;7372466;19;20661;-75
2022/10/10 00:29:34;;;;;;;12.73;6.82;;;;;;;8.71;100.00;101544.06;7365014;19;20011;-76
2022/10/10 00:32:04;;;;;;;13.35;7.03;;;;;;;8.74;100.00;101541.53;7372047;19;20006;-76
2022/10/10 00:34:34;;;;;;;9.95;6.20;;;;;;;8.74;100.00;101529.34;7373185;19;20345;-76
2022/10/10 00:37:03;;;;;;;13.68;6.47;;;;;;;8.82;100.00;101540.06;7370414;19;20014;-77
2022/10/10 00:39:33;;;;;;;14.02;6.75;;;;;;;8.83;100.00;101533.97;7373278;19;20017;-74
2022/10/10 00:42:06;;;;;;;10.23;6.90;;;;;;;8.83;100.00;101537.47;7369354;19;20014;-74
2022/10/10 00:44:36;;;;;;;15.13;6.38;;;;;;;8.80;100.00;101534.78;7370207;19;20017;-74
2022/10/10 00:47:05;;;;;;;11.52;6.03;;;;;;;8.81;100.00;101527.81;7370469;19;20014;-76
2022/10/10 00:49:38;;;;;;;19.17;7.57;;;;;;;8.83;100.00;101537.47;7371749;19;20015;-77
2022/10/10 00:52:10;;;;;;;12.82;7.07;;;;;;;8.85;100.00;101537.53;7371248;19;20015;-76
2022/10/10 00:54:40;;;;;;;11.57;6.40;;;;;;;8.91;100.00;101534.22;7369754;19;20097;-76
2022/10/10 00:57:16;;;;;;;15.25;6.32;;;;;;;8.91;100.00;101532.50;7370979;19;20691;-77
2022/10/10 00:59:48;;;;;;;10.40;6.03;;;;;;;8.93;100.00;101537.78;7372867;19;20022;-76
2022/10/10 01:02:17;;;;;;;11.48;7.20;;;;;;;8.90;100.00;101527.22;7371617;19;20010;-76
2022/10/10 01:04:47;;;;;;;12.43;6.65;;;;;;;8.85;100.00;101529.69;7370689;19;20161;-75
2022/10/10 01:07:21;;;;;;;14.25;7.15;;;;;;;8.86;100.00;101526.22;7370274;19;20017;-77
2022/10/10 01:09:54;;;;;;;10.20;6.95;;;;;;;8.89;100.00;101517.59;7369664;19;20501;-75
2022/10/10 01:12:32;;;;;;;12.55;6.50;;;;;;;8.88;100.00;101513.19;7372241;19;20127;-75
2022/10/10 01:15:10;;;;;;;13.57;7.15;;;;;;;8.87;100.00;101517.53;7370381;19;20021;-76
2022/10/10 01:17:46;;;;;;;12.98;6.60;;;;;;;8.96;100.00;101522.16;7372348;19;20021;-75
2022/10/10 01:20:46;;;;;;;11.50;6.95;;;;;;;8.91;100.00;101519.41;7370462;19;20022;-77
2022/10/10 01:24:03;;;;;;;15.98;6.70;;;;;;;8.96;100.00;101522.16;7372723;19;20009;-76
2022/10/10 01:27:05;;;;;;;15.05;7.95;;;;;;;8.89;100.00;101504.50;7364893;19;20105;-75
2022/10/10 01:29:40;;;;;;;15.57;6.97;;;;;;;8.91;100.00;101508.06;7365926;19;20014;-75
2022/10/10 01:32:14;;;;;;;11.00;6.82;;;;;;;8.91;100.00;101508.06;7371503;19;20007;-76
2022/10/10 01:34:55;;;;;;;16.15;7.43;;;;;;;8.88;100.00;101502.72;7356597;19;20130;-75
2022/10/10 01:37:36;;;;;;;12.60;7.40;;;;;;;8.92;100.00;101501.97;7369843;19;20476;-75
2022/10/10 01:40:13;;;;;;;11.60;7.28;;;;;;;8.85;100.00;101493.94;7369555;19;20483;-77
2022/10/10 01:42:47;;;;;;;19.25;7.85;;;;;;;8.82;100.00;101487.75;7367773;19;20011;-75
2022/10/10 01:45:20;;;;;;;13.23;8.02;;;;;;;8.83;100.00;101487.78;7368872;19;20010;-76
2022/10/10 01:47:51;;;;;;;16.63;7.63;;;;;;;8.82;100.00;101493.84;7368689;19;20093;-76
2022/10/10 01:50:25;;;;;;;13.45;7.55;;;;;;;8.80;100.00;101485.06;7369798;19;20066;-74
2022/10/10 01:53:07;;;;;;;12.02;6.90;;;;;;;8.73;100.00;101477.00;7363364;19;20415;-75
2022/10/10 01:55:56;;;;;;;12.80;6.15;;;;;;;8.68;100.00;101476.84;7368632;19;20064;-75
2022/10/10 01:58:44;;;;;;;13.07;6.82;;;;;;;8.67;100.00;101476.81;7369948;19;20097;-73
2022/10/10 02:01:23;;;;;;;17.90;7.90;;;;;;;8.62;100.00;101474.03;7369133;19;20090;-73
2022/10/10 02:03:59;;;;;;;15.02;7.60;;;;;;;8.59;100.00;101473.94;7369876;19;20533;-73
2022/10/10 02:06:37;;;;;;;12.68;7.57;;;;;;;8.62;100.00;101474.03;7368038;19;20055;-74
2022/10/10 02:09:13;;;;;;;15.00;7.45;;;;;;;8.62;100.00;101468.81;7368406;19;20010;-73
2022/10/10 02:11:43;;;;;;;11.38;7.22;;;;;;;8.53;100.00;101469.41;7367670;19;20301;-73
2022/10/10 02:14:19;;;;;;;11.85;7.40;;;;;;;8.55;100.00;101472.09;7367749;19;20003;-75
2022/10/10 02:16:56;;;;;;;15.35;7.07;;;;;;;8.55;100.00;101460.72;7368572;19;20019;-72
2022/10/10 02:19:27;;;;;;;13.73;7.97;;;;;;;8.52;100.00;101467.63;7367163;19;20007;-74
2022/10/10 02:21:57;;;;;;;14.13;7.65;;;;;;;8.53;100.00;101460.69;7370160;19;20011;-72
2022/10/10 02:24:28;;;;;;;12.38;7.15;;;;;;;8.52;100.00;101456.28;7369397;19;20479;-74
2022/10/10 02:27:04;;;;;;;12.57;7.10;;;;;;;8.50;100.00;101455.38;7369226;19;20015;-73
2022/10/10 02:29:38;;;;;;;14.13;7.03;;;;;;;8.39;100.00;101455.03;7367445;19;20015;-74
2022/10/10 02:32:13;;;;;;;18.30;7.10;;;;;;;8.47;100.00;101450.91;7367387;19;20011;-74
2022/10/10 02:34:47;;;;;;;12.13;6.72;;;;;;;8.39;100.00;101448.91;7369124;19;20025;-75
2022/10/10 02:37:17;;;;;;;;;;;;;;;8.39;100.00;101448.91;7368699;19;20006;-73
2022/10/10 02:39:51;;;;;;;14.15;6.97;;;;;;;8.30;100.00;101443.38;7368512;19;19991;-74
2022/10/10 02:42:24;;;;;;;12.40;7.57;;;;;;;8.27;100.00;101446.78;7368763;19;20048;-74
2022/10/10 02:44:54;;;;;;;15.63;8.38;;;;;;;8.26;100.00;101441.50;7377175;19;20027;-74
2022/10/10 02:47:26;;;;;;;15.57;7.53;;;;;;;8.23;100.00;101436.19;7376095;19;20018;-74
2022/10/10 02:49:56;;;;;;;14.15;7.43;;;;;;;8.22;100.00;101442.25;7376132;19;20025;-74
2022/10/10 02:52:26;;;;;;;17.20;8.02;;;;;;;8.24;100.00;101443.19;7366801;19;20017;-73
2022/10/10 02:54:55;;;;;;;15.82;7.90;;;;;;;8.20;100.00;101439.59;7375995;19;20015;-74
2022/10/10 02:57:25;;;;;;;12.60;7.93;;;;;;;8.18;100.00;101434.31;7372438;19;20010;-76
2022/10/10 02:59:56;;;;;;;13.48;6.88;;;;;;;8.15;100.00;101439.44;7376178;19;20002;-76
2022/10/10 03:02:28;;;;;;;15.63;7.90;;;;;;;8.17;100.00;101435.16;7374069;19;20010;-76
2022/10/10 03:04:57;;;;;;;14.18;7.78;;;;;;;8.18;100.00;101433.44;7376936;19;20498;-76
2022/10/10 03:07:27;;;;;;;18.50;7.93;;;;;;;8.18;100.00;101433.44;7378324;19;20011;-76
2022/10/10 03:09:57;;;;;;;17.38;8.00;;;;;;;8.18;100.00;101430.81;7377513;19;20006;-76
2022/10/10 03:12:27;;;;;;;17.05;8.23;;;;;;;8.14;100.00;101424.59;7377272;19;20015;-77
2022/10/10 03:14:56;;;;;;;17.90;8.00;;;;;;;8.19;100.00;101425.63;7375707;19;20010;-74
2022/10/10 03:17:29;;;;;;;14.73;7.78;;;;;;;8.22;100.00;101426.56;7376501;19;20010;-74
2022/10/10 03:19:58;;;;;;;19.67;8.02;;;;;;;8.12;100.00;101425.38;7376177;19;20079;-74
2022/10/10 03:22:31;;;;;;;14.90;7.60;;;;;;;8.10;100.00;101425.34;7374847;19;20133;-74
2022/10/10 03:25:01;;;;;;;15.25;7.57;;;;;;;8.12;100.00;101428.88;7374775;19;20018;-73
2022/10/10 03:27:30;;;;;;;13.75;8.10;;;;;;;8.08;100.00;101427.00;7375148;19;20062;-74
2022/10/10 03:30:00;;;;;;;14.98;8.32;;;;;;;8.09;100.00;101427.91;7374200;19;20006;-74
2022/10/10 03:32:32;;;;;;;13.13;7.25;;;;;;;8.12;100.00;101421.06;7374285;19;20481;-73
2022/10/10 03:35:02;;;;;;;16.58;8.10;;;;;;;8.12;100.00;101428.88;7372923;19;20010;-72
2022/10/10 03:37:32;;;;;;;18.77;8.38;;;;;;;8.11;100.00;101428.84;7373222;19;20015;-73
2022/10/10 03:40:01;;;;;;;14.35;8.55;;;;;;;8.15;100.00;101430.72;7371545;19;20436;-72
2022/10/10 03:42:31;;;;;;;16.05;8.05;;;;;;;8.12;100.00;101423.66;7369678;19;20015;-76
2022/10/10 03:45:00;;;;;;;15.85;7.63;;;;;;;8.08;100.00;101434.84;7371764;19;20015;-75
2022/10/10 03:47:33;;;;;;;15.05;8.32;;;;;;;8.05;100.00;101424.31;7373912;19;20007;-75
2022/10/10 03:50:03;;;;;;;16.20;8.18;;;;;;;8.09;100.00;101420.94;7374794;19;20362;-74
2022/10/10 03:52:32;;;;;;;15.32;8.48;;;;;;;8.07;100.00;101425.25;7367266;19;20011;-72
2022/10/10 03:55:02;;;;;;;15.85;8.65;;;;;;;8.11;100.00;101421.00;7373299;19;20328;-72
2022/10/10 03:57:32;;;;;;;15.15;8.27;;;;;;;8.04;100.00;101425.13;7372796;19;20453;-73
2022/10/10 04:00:01;;;;;;;18.05;9.07;;;;;;;8.07;100.00;101425.25;7373189;19;20025;-73
2022/10/10 04:02:34;;;;;;;14.93;8.02;;;;;;;8.07;100.00;101425.25;7375750;19;20014;-73
2022/10/10 04:05:04;;;;;;;20.23;8.73;;;;;;;8.07;100.00;101435.69;7371987;19;20122;-75
2022/10/10 04:07:34;;;;;;;15.02;8.15;;;;;;;8.10;100.00;101425.34;7373996;19;20355;-75
2022/10/10 04:10:04;;;;;;;18.17;9.00;;;;;;;8.08;100.00;101421.78;7372673;19;20018;-77
2022/10/10 04:12:34;;;;;;;18.38;9.05;;;;;;;8.12;100.00;101423.66;7374139;19;20441;-77
2022/10/10 04:15:03;;;;;;;17.98;8.27;;;;;;;8.07;100.00;101419.13;7373576;19;20475;-77
2022/10/10 04:17:36;;;;;;;17.75;8.50;;;;;;;8.06;100.00;101417.34;7371468;19;20013;-75
2022/10/10 04:20:06;;;;;;;14.45;8.05;;;;;;;7.97;100.00;101419.66;7372114;19;20582;-75
2022/10/10 04:22:36;;;;;;;15.23;8.15;;;;;;;7.96;100.00;101416.16;7372850;19;20221;-75
2022/10/10 04:25:06;;;;;;;18.85;8.93;;;;;;;7.94;100.00;101417.84;7372651;19;20086;-75
2022/10/10 04:27:36;;;;;;;17.02;8.05;;;;;;;7.96;100.00;101413.56;7372578;19;20010;-73
2022/10/10 04:30:07;;;;;;;18.90;8.88;;;;;;;7.99;100.00;101408.44;7372274;19;20014;-73
2022/10/10 04:32:40;;;;;;;17.58;9.32;;;;;;;7.97;100.00;101407.50;7370490;19;20015;-75
2022/10/10 04:35:10;;;;;;;15.90;9.00;;;;;;;7.95;100.00;101409.16;7375037;19;20296;-75
2022/10/10 04:37:40;;;;;;;14.52;7.85;;;;;;;7.92;100.00;101418.63;7370886;19;20506;-77
2022/10/10 04:40:11;;;;;;;16.52;8.82;;;;;;;7.91;100.00;101417.72;7371615;19;20524;-74
2022/10/10 04:42:41;;;;;;;21.42;9.77;;;;;;;7.92;100.00;101424.72;7368304;19;20461;-72
2022/10/10 04:45:11;;;;;;;20.80;9.77;;;;;;;7.94;100.00;101422.19;7374563;19;20014;-75
2022/10/10 04:47:43;;;;;;;17.75;9.38;;;;;;;7.92;100.00;101418.63;7370278;19;20409;-72
2022/10/10 04:50:13;;;;;;;16.63;9.05;;;;;;;7.88;100.00;101417.63;7373238;19;20014;-74
2022/10/10 04:52:43;;;;;;;21.77;9.88;;;;;;;7.88;100.00;101428.09;7365706;19;20082;-74
2022/10/10 04:55:12;;;;;;;17.85;9.52;;;;;;;7.87;100.00;101421.09;7370173;19;20074;-72
2022/10/10 04:57:42;;;;;;;15.65;8.75;;;;;;;7.86;100.00;101425.41;7368187;19;20023;-78
2022/10/10 05:00:13;;;;;;;17.98;8.85;;;;;;;7.90;100.00;101423.78;7373599;19;20033;-76
2022/10/10 05:02:45;;;;;;;17.67;8.73;;;;;;;7.85;100.00;101427.97;7368369;19;20014;-73
2022/10/10 05:05:15;;;;;;;19.83;9.25;;;;;;;7.81;100.00;101432.22;7365712;19;20010;-72
2022/10/10 05:07:45;;;;;;;21.35;10.35;;;;;;;7.82;100.00;101433.09;7374309;19;20479;-73
2022/10/10 05:10:14;;;;;;;14.88;8.32;;;;;;;7.78;100.00;101432.09;7370613;19;20078;-73
2022/10/10 05:12:44;;;;;;;16.85;8.55;;;;;;;7.74;100.00;101435.44;7370057;19;20023;-73
2022/10/10 05:15:14;;;;;;;17.63;9.00;;;;;;;7.75;100.00;101437.22;7372962;19;20007;-73
2022/10/10 05:17:46;;;;;;;16.35;8.32;;;;;;;7.74;100.00;101438.06;7368215;19;20195;-75
2022/10/10 05:20:16;;;;;;;18.83;9.43;;;;;;;7.67;100.00;101443.00;7373492;19;20020;-76
2022/10/10 05:22:46;;;;;;;19.33;9.63;;;;;;;7.66;100.00;101447.34;7368986;19;20999;-76
2022/10/10 05:25:16;;;;;;;16.63;8.20;;;;;;;7.65;100.00;101453.41;7372016;19;20011;-76
2022/10/10 05:27:46;;;;;;;16.55;8.52;;;;;;;7.59;100.00;101444.47;7370976;19;20042;-76
2022/10/10 05:30:16;;;;;;;16.70;9.13;;;;;;;7.57;100.00;101433.09;7370338;19;20060;-75
2022/10/10 05:32:48;;;;;;;15.57;8.32;;;;;;;7.47;100.00;101435.38;7370804;19;20026;-76
2022/10/10 05:35:19;;;;;;;20.10;9.10;;;;;;;7.44;100.00;101439.59;7368965;19;20045;-75
2022/10/10 05:37:48;;;;;;;16.50;9.32;;;;;;;7.46;100.00;101433.59;7366745;19;20094;-75
2022/10/10 05:40:19;;;;;;;18.83;8.80;;;;;;;7.55;100.00;101435.66;7369466;19;20022;-76
2022/10/10 05:42:48;;;;;;;21.02;9.25;;;;;;;7.60;100.00;101446.25;7366966;19;20015;-76
2022/10/10 05:45:19;;;;;;;21.42;9.90;;;;;;;7.62;100.00;101449.78;7369693;19;20025;-76
2022/10/10 05:47:51;;;;;;;21.65;9.52;;;;;;;7.68;100.00;101443.06;7370585;19;20017;-73
2022/10/10 05:50:31;;;;;;;19.13;9.25;;;;;;;7.68;100.00;101444.78;7369962;19;20006;-73
2022/10/10 05:53:01;;;;;;;17.52;9.85;;;;;;;7.70;100.00;101449.22;7362353;19;20012;-73
2022/10/10 05:55:31;;;;;;;22.45;10.25;;;;;;;7.74;100.00;101445.00;7369537;19;20002;-73
2022/10/10 05:58:00;;;;;;;25.38;9.63;;;;;;;7.85;100.00;101446.25;7366102;19;20010;-73
2022/10/10 06:00:30;;;;;;;19.13;10.05;;;;;;;7.86;100.00;101448.03;7370715;19;20018;-73
2022/10/10 06:03:05;;;;;;;22.27;10.75;;;;;;;7.86;100.00;101446.31;7370391;19;20554;-73
2022/10/10 06:05:35;;;;;;;18.73;9.75;;;;;;;7.93;100.00;101444.78;7370901;19;20014;-73
2022/10/10 06:08:04;;;;;;;20.02;9.35;;;;;;;7.99;100.00;101436.28;7368104;19;20006;-73
2022/10/10 06:10:42;;;;;;;18.95;10.05;;;;;;;8.06;100.00;101444.38;7369411;19;20014;-73
2022/10/10 06:13:13;;;;;;;21.50;9.68;;;;;;;8.07;100.00;101440.91;7367886;19;20038;-73
2022/10/10 06:15:43;;;;;;;21.05;9.48;;;;;;;8.07;100.00;101440.91;7370657;19;20015;-73
2022/10/10 06:18:15;;;;;;;17.80;9.80;;;;;;;8.13;100.00;101435.00;7365807;19;20010;-75
2022/10/10 06:20:45;;;;;;;24.08;10.13;;;;;;;8.11;100.00;101436.69;7370760;19;20007;-75
2022/10/10 06:23:15;;;;;;;17.38;9.27;;;;;;;8.19;100.00;101441.31;7368357;19;20023;-72
2022/10/10 06:25:44;;;;;;;18.10;9.60;;;;;;;8.21;100.00;101446.59;7369228;19;20006;-72
2022/10/10 06:28:14;;;;;;;16.20;9.20;;;;;;;8.24;100.00;101432.75;7366015;19;20940;-73
2022/10/10 06:30:47;;;;;;;20.95;9.60;;;;;;;8.27;100.00;101440.69;7367150;19;20022;-75
2022/10/10 06:33:20;;;;;;;21.33;9.93;;;;;;;8.38;100.00;101448.03;7366055;19;20552;-75
2022/10/10 06:35:51;;;;;;;20.20;9.98;;;;;;;8.47;100.00;101447.41;7365929;19;20014;-75
2022/10/10 06:38:23;;;;;;;;;;;;;;;8.56;100.00;101454.66;7367355;19;20022;-75
2022/10/10 06:40:53;;;;;;;22.92;9.85;;;;;;;8.58;100.00;101460.81;7364388;19;20240;-73
2022/10/10 06:43:28;;;;;;;18.85;10.00;;;;;;;8.61;100.00;101459.19;7370753;19;20636;-73
2022/10/10 06:45:58;;;;;;;20.70;10.60;;;;;;;8.63;100.00;101462.75;7370422;19;20021;-73
2022/10/10 06:48:33;;;;;;;24.27;10.38;;;;;;;8.67;100.00;101462.00;7366961;19;20006;-73
2022/10/10 06:51:08;;;;;;;19.52;10.25;;;;;;;8.71;100.00;101456.03;7363444;19;20007;-73
2022/10/10 06:53:37;;;;;;;20.52;10.32;;;;;;;8.75;100.00;101457.00;7358544;19;20514;-73
2022/10/10 06:56:07;;;;;;;17.75;9.75;;;;;;;8.79;100.00;101462.38;7356985;19;20010;-74
2022/10/10 06:58:37;;;;;;;21.83;10.48;;;;;;;8.90;100.00;101465.31;7360642;19;20014;-74
2022/10/10 07:01:07;;;;;;;20.38;9.68;;;;;;;8.96;100.00;101460.28;7358889;19;20006;-74
2022/10/10 07:03:39;;;;;;;19.90;10.18;;;;;;;8.97;100.00;101469.00;7361773;19;20518;-77
2022/10/10 07:06:11;;;;;;;17.27;8.93;;;;;;;9.00;100.00;101476.94;7362001;19;20029;-76
2022/10/10 07:08:41;;;;;;;21.60;10.77;;;;;;;9.05;100.00;101477.97;7357275;19;20010;-76
2022/10/10 07:11:11;;;;;;;19.45;10.02;;;;;;;9.09;100.00;101478.09;7356598;19;20245;-77
2022/10/10 07:13:41;;;;;;;19.42;9.90;;;;;;;9.10;100.00;101482.50;7358889;19;20013;-77
2022/10/10 07:16:12;;;;;;;21.40;9.57;;;;;;;9.14;100.00;101486.97;7360228;19;20026;-74
2022/10/10 07:18:44;;;;;;;20.58;9.77;;;;;;;9.21;100.00;101493.28;7357842;19;20022;-74
2022/10/10 07:21:14;;;;;;;22.73;10.27;;;;;;;9.24;100.00;101493.38;7362410;19;20122;-74
2022/10/10 07:23:44;;;;;;;20.77;10.27;;;;;;;9.29;100.00;101485.66;7361480;19;20011;-74
2022/10/10 07:26:20;;;;;;;19.15;9.50;;;;;;;9.36;100.00;101483.22;7364211;19;20003;-77
2022/10/10 07:28:50;;;;;;;20.10;9.68;;;;;;;9.47;100.00;101478.28;7364298;19;20017;-77
2022/10/10 07:31:20;;;;;;;16.55;9.32;;;;;;;9.56;100.00;101469.78;7372191;19;20006;-77
2022/10/10 07:33:53;;;;;;;16.20;8.93;;;;;;;9.69;100.00;101471.91;7371919;19;20558;-77
2022/10/10 07:36:22;;;;;;;17.50;9.93;;;;;;;9.83;100.00;101474.03;7371251;19;20014;-77
2022/10/10 07:38:53;;;;;;;17.38;9.15;;;;;;;9.98;100.00;101468.31;7373067;19;20014;-77
2022/10/10 07:41:23;;;;;;;20.67;10.70;;;;;;;10.14;100.00;101478.34;7375161;19;20373;-77
2022/10/10 07:43:56;;;;;;;20.77;10.10;;;;;;;10.31;100.00;101486.66;7367126;19;20048;-77
2022/10/10 07:46:29;;;;;;;18.38;9.75;;;;;;;10.47;100.00;101485.25;7368683;19;20010;-77
2022/10/10 07:49:01;;;;;;;19.38;10.05;;;;;;;10.55;100.00;101478.47;7370988;19;20010;-77
2022/10/10 07:51:32;;;;;;;17.55;9.63;;;;;;;10.64;100.00;101486.53;7367959;19;20014;-77
2022/10/10 07:54:02;;;;;;;16.80;8.85;;;;;;;10.68;100.00;101488.38;7364114;19;20010;-77
2022/10/10 07:56:32;;;;;;;18.48;9.63;;;;;;;10.75;100.00;101489.41;7369180;19;20054;-77
2022/10/10 07:59:02;;;;;;;15.55;8.73;;;;;;;10.78;100.00;101492.09;7370299;19;20137;-77
2022/10/10 08:01:32;;;;;;;17.70;9.82;;;;;;;10.84;100.00;101491.38;7375101;19;20323;-77
2022/10/10 08:04:05;;;;;;;17.50;9.10;;;;;;;10.88;100.00;101490.56;7374569;19;20030;-77
2022/10/10 08:06:35;;;;;;;19.95;9.65;;;;;;;10.96;100.00;101512.63;7372126;19;20594;-77
2022/10/10 08:09:04;;;;;;;17.67;8.50;;;;;;;11.05;100.00;101512.84;7367654;19;20015;-74
2022/10/10 08:11:34;;;;;;;18.67;9.60;;;;;;;11.09;100.00;101512.06;7366777;19;20006;-73
2022/10/10 08:14:04;;;;;;;17.92;8.85;;;;;;;11.17;100.00;101527.97;7363188;19;20007;-74
2022/10/10 08:16:34;;;;;;;15.35;8.88;;;;;;;11.22;100.00;101527.22;7365681;19;20489;-73
2022/10/10 08:19:06;;;;;;;17.55;9.32;;;;;;;11.26;100.00;101515.94;7363951;19;20093;-74
2022/10/10 08:21:37;;;;;;;14.18;7.90;;;;;;;11.34;100.00;101524.84;7366757;19;20035;-73
2022/10/10 08:24:07;;;;;;;15.52;8.20;;;;;;;11.40;100.00;101524.09;7369579;19;20381;-77
2022/10/10 08:26:36;;;;;;;15.30;8.13;;;;;;;11.46;100.00;101522.44;7372390;19;20006;-77
2022/10/10 08:29:06;;;;;;;13.73;7.90;;;;;;;11.50;100.00;101530.38;7368162;19;20007;-76
2022/10/10 08:31:35;;;;;;;18.70;9.25;;;;;;;11.52;100.00;101528.69;7368590;19;20014;-76
2022/10/10 08:34:08;;;;;;;15.05;8.48;;;;;;;11.56;100.00;101538.41;7365307;19;20021;-76
2022/10/10 08:36:38;;;;;;;16.27;9.95;;;;;;;11.59;100.00;101535.84;7365424;19;20530;-76
2022/10/10 08:39:09;;;;;;;15.50;8.05;;;;;;;11.63;100.00;101537.66;7363048;19;20359;-75
2022/10/10 08:41:44;;;;;;;18.30;8.88;;;;;;;11.62;100.00;101533.25;7360270;19;20025;-75
2022/10/10 08:44:21;;;;;;;19.38;8.55;;;;;;;11.65;100.00;101517.56;7364826;19;21598;-76
2022/10/10 08:46:54;;;;;;;21.15;9.35;;;;;;;11.62;100.00;101520.13;7370842;19;20957;-76
2022/10/10 08:49:34;;;;;;;15.73;8.55;;;;;;;11.71;100.00;101525.56;7366953;19;20527;-75
2022/10/10 08:52:09;;;;;;;16.90;8.32;;;;;;;11.80;100.00;101541.53;7368120;19;20014;-76
2022/10/10 08:54:40;;;;;;;16.70;8.27;;;;;;;11.89;100.00;101541.72;7370666;19;20629;-76
2022/10/10 08:57:24;;;;;;;19.38;8.68;;;;;;;11.95;100.00;101531.31;7372473;19;20258;-77
2022/10/10 08:59:57;;;;;;;16.10;8.20;;;;;;;12.02;100.00;101535.84;7367817;19;20015;-76
2022/10/10 09:02:30;;;;;;;;;;;;;;;12.10;100.00;101542.13;7367166;19;20289;-75
2022/10/10 09:05:35;;;;;;;20.13;9.23;;;;;;;12.20;100.00;101537.91;7366645;19;19918;-75
2022/10/10 09:08:26;;;;;;;15.80;7.75;;;;;;;12.33;100.00;101545.16;7367052;19;20014;-76
2022/10/10 09:11:01;;;;;;;17.92;8.57;;;;;;;12.45;100.00;101544.47;7366641;19;20007;-76
2022/10/10 09:13:36;;;;;;;20.15;8.52;;;;;;;12.56;100.00;101536.75;7367272;19;20483;-75
2022/10/10 09:16:09;;;;;;;19.60;8.88;;;;;;;12.68;100.00;101542.19;7365265;19;20751;-75
2022/10/10 09:18:46;;;;;;;;;;;;;;;12.78;100.00;101547.63;7366251;19;20018;-75
2022/10/10 09:21:22;;;;;;;15.40;7.80;;;;;;;12.91;100.00;101543.44;7365005;19;19910;-75
2022/10/10 09:23:59;;;;;;;19.70;10.07;;;;;;;13.09;100.00;101545.44;7366298;19;20029;-75
2022/10/10 09:26:33;;;;;;;17.45;8.40;;;;;;;13.30;100.00;101544.91;7365412;19;20010;-75
2022/10/10 09:29:07;;;;;;;17.63;8.80;;;;;;;13.59;100.00;101553.16;7362723;19;20011;-78
2022/10/10 09:31:42;;;;;;;17.05;8.13;;;;;;;13.65;100.00;101555.84;7369864;19;20010;-76
2022/10/10 09:34:18;;;;;;;19.73;8.45;;;;;;;13.65;100.00;101563.75;7366267;19;20006;-76
2022/10/10 09:36:50;;;;;;;19.98;8.63;;;;;;;13.72;100.00;101560.34;7363821;19;20082;-76
2022/10/10 09:39:37;;;;;;;19.77;8.45;;;;;;;13.77;100.00;101570.94;7364434;19;20010;-76
2022/10/10 09:42:12;;;;;;;16.95;8.52;;;;;;;13.78;100.00;101570.94;7364454;19;20011;-77
2022/10/10 09:44:44;;;;;;;17.30;8.75;;;;;;;13.77;100.00;101574.47;7364093;19;20037;-75
2022/10/10 09:47:15;;;;;;;16.30;8.10;;;;;;;13.97;100.00;101577.31;7364905;19;20110;-76
2022/10/10 09:49:45;;;;;;;18.60;8.10;;;;;;;14.11;100.00;101582.75;7364803;19;20011;-75
2022/10/10 09:52:27;;;;;;;20.95;8.25;;;;;;;14.24;100.00;101577.63;7358881;19;20015;-75
2022/10/10 09:55:01;;;;;;;17.95;7.57;;;;;;;14.31;100.00;101594.41;7363792;19;20288;-76
2022/10/10 09:57:37;;;;;;;14.15;7.70;;;;;;;14.33;100.00;101592.66;7364187;19;20015;-76
2022/10/10 10:00:36;;;;;;;15.95;7.68;;;;;;;14.37;100.00;101599.72;7366737;19;20018;-76
2022/10/10 10:03:14;;;;;;;15.90;7.65;;;;;;;14.43;100.00;101602.47;7362448;19;20413;-75
2022/10/10 10:05:47;;;;;;;13.10;6.65;;;;;;;14.70;100.00;101605.31;7363468;19;20151;-76
2022/10/10 10:08:27;;;;;;;13.47;7.47;;;;;;;14.92;100.00;101608.13;7363924;19;20021;-76
2022/10/10 10:11:02;;;;;;;19.38;7.65;;;;;;;15.00;100.00;101614.38;7363446;19;20604;-76
2022/10/10 10:13:34;;;;;;;15.85;7.90;;;;;;;15.00;100.00;101604.69;7360707;19;20014;-76
2022/10/10 10:16:10;;;;;;;15.10;7.57;;;;;;;14.90;100.00;101610.78;7364223;19;20010;-78
2022/10/10 10:18:42;;;;;;;13.90;7.70;;;;;;;14.99;100.00;101609.97;7365645;19;20462;-77
2022/10/10 10:21:23;;;;;;;13.40;6.93;;;;;;;15.12;100.00;101618.84;7362518;19;20346;-74
2022/10/10 10:23:58;;;;;;;16.17;7.22;;;;;;;15.19;100.00;101621.56;7365272;19;20025;-74
2022/10/10 10:26:32;;;;;;;15.52;7.20;;;;;;;15.25;100.00;101621.59;7367591;19;20006;-74
2022/10/10 10:29:02;;;;;;;17.45;7.53;;;;;;;15.15;100.00;101629.44;7367528;19;20014;-74
2022/10/10 10:31:54;;;;;;;14.27;6.80;;;;;;;15.18;100.00;101629.47;7373129;19;20014;-73
2022/10/10 10:35:02;;;;;;;16.77;7.10;;;;;;;15.06;100.00;101635.53;7366783;19;20010;-74
2022/10/10 10:37:44;;;;;;;14.88;6.43;;;;;;;15.01;100.00;101645.19;7365874;19;20010;-74
2022/10/10 10:40:35;;;;;;;14.13;7.22;;;;;;;14.95;100.00;101653.94;7368136;19;20022;-73
2022/10/10 10:43:39;;;;;;;12.43;6.60;;;;;;;14.88;100.00;101646.84;7363398;19;20010;-74
2022/10/10 10:46:29;;;;;;;15.35;7.15;;;;;;;14.90;100.00;101649.50;7366013;19;20034;-74
2022/10/10 10:49:12;;;;;;;15.73;7.72;;;;;;;14.85;100.00;101643.28;7371450;19;20014;-74
2022/10/10 10:52:19;;;;;;;14.70;7.30;;;;;;;15.13;100.00;101650.56;7370945;19;20010;-74
2022/10/10 10:55:12;;;;;;;14.88;7.43;;;;;;;15.11;100.00;101647.03;7364131;19;20007;-74
2022/10/10 10:58:06;;;;;;;16.85;6.78;;;;;;;15.22;100.00;101652.41;7363633;19;20014;-75
2022/10/10 11:01:11;;;;;;;16.05;6.80;;;;;;;15.04;100.00;101651.38;7366721;19;20015;-75
2022/10/10 11:04:13;;;;;;;14.02;7.00;;;;;;;15.15;100.00;101653.22;7378085;19;20014;-78
2022/10/10 11:07:14;;;;;;;14.00;7.10;;;;;;;15.14;100.00;101660.25;7375358;19;20006;-78
2022/10/10 11:09:57;;;;;;;14.63;7.25;;;;;;;15.17;100.00;101662.94;7368607;19;20018;-78
2022/10/10 11:12:44;;;;;;;14.68;7.22;;;;;;;15.11;100.00;101649.69;7374589;19;20017;-77
2022/10/10 11:15:23;;;;;;;15.32;8.07;;;;;;;15.14;100.00;101657.63;7371054;19;20593;-78
2022/10/10 11:18:02;;;;;;;14.50;6.78;;;;;;;15.14;100.00;101660.25;7369967;19;20469;-78
2022/10/10 11:20:37;;;;;;;15.45;7.00;;;;;;;15.18;100.00;101659.41;7370980;19;20021;-78
2022/10/10 11:23:13;;;;;;;13.77;6.82;;;;;;;15.29;100.00;101654.22;7370953;19;20119;-78
2022/10/10 11:25:47;;;;;;;17.85;7.40;;;;;;;15.24;100.00;101662.09;7365798;19;20014;-78
2022/10/10 11:28:22;;;;;;;14.07;7.45;;;;;;;15.26;100.00;101662.13;7366509;19;21363;-78
2022/10/10 11:31:00;;;;;;;12.10;7.07;;;;;;;15.33;100.00;101670.09;7371992;19;20479;-78
2022/10/10 11:36:52;;;;;;;15.23;7.03;;;;;;;15.21;100.00;101675.28;7357435;19;20899;-75
2022/10/10 11:39:51;;;;;;;13.15;6.10;;;;;;;15.22;100.00;101685.00;7364997;19;20038;-75
2022/10/10 11:46:07;;;;;;;9.60;4.10;;;;;;;15.10;100.00;101684.00;7369380;19;20413;-74
2022/10/10 11:52:42;;;;;;;7.28;2.65;;;;;;;14.73;100.00;101687.22;7362225;19;20010;-78
2022/10/10 11:55:17;;;;;;;10.43;3.95;;;;;;;14.67;100.00;101696.81;7372985;19;20014;-77
2022/10/10 11:57:54;;;;;;;10.25;3.00;;;;;;;14.55;100.00;101708.16;7373040;19;20021;-77